sensor_id;sensor_type;location;lat;lon;timestamp;pressure;altitude;pressure_sealevel;temperature;humidity
39699;BME280;25372;50.582;12.250;2022-10-16T00:01:35;99555.69;;;11.49;100.00
39699;BME280;25372;50.582;12.250;2022-10-16T00:11:58;99563.81;;;11.41;100.00
39699;BME280;25372;50.582;12.250;2022-10-16T00:22:19;99579.88;;;11.32;100.00
39699;BME280;25372;50.582;12.250;2022-10-16T00:32:44;99579.91;;;11.04;100.00
39699;BME280;25372;50.582;12.250;2022-10-16T00:43:12;99552.16;;;10.78;100.00
39699;BME280;25372;50.582;12.250;2022-10-16T00:53:34;99597.78;;;10.95;100.00
39699;BME280;25372;50.582;12.250;2022-10-16T01:03:56;99607.75;;;10.93;100.00
39699;BME280;25372;50.582;12.250;2022-10-16T01:14:23;99605.78;;;11.02;100.00
39699;BME280;25372;50.582;12.250;2022-10-16T01:24:49;99612.09;;;11.01;100.00
39699;BME280;25372;50.582;12.250;2022-10-16T01:35:17;99624.69;;;11.49;100.00
39699;BME280;25372;50.582;12.250;2022-10-16T01:45:41;99615.84;;;11.77;100.00
39699;BME280;25372;50.582;12.250;2022-10-16T01:56:09;99607.63;;;12.00;100.00
39699;BME280;25372;50.582;12.250;2022-10-16T02:06:32;99613.56;;;12.15;100.00
39699;BME280;25372;50.582;12.250;2022-10-16T02:16:54;99626.50;;;12.32;100.00
39699;BME280;25372;50.582;12.250;2022-10-16T02:27:19;99627.56;;;12.44;100.00
39699;BME280;25372;50.582;12.250;2022-10-16T02:37:44;99611.44;;;12.59;100.00
39699;BME280;25372;50.582;12.250;2022-10-16T02:48:06;99629.25;;;12.72;100.00
39699;BME280;25372;50.582;12.250;2022-10-16T02:58:29;99619.44;;;12.79;100.00
39699;BME280;25372;50.582;12.250;2022-10-16T03:08:50;99617.31;;;12.28;100.00
39699;BME280;25372;50.582;12.250;2022-10-16T03:19:12;99633.38;;;12.06;100.00
39699;BME280;25372;50.582;12.250;2022-10-16T03:29:34;99635.06;;;11.79;100.00
39699;BME280;25372;50.582;12.250;2022-10-16T03:39:56;99645.63;;;11.72;100.00
39699;BME280;25372;50.582;12.250;2022-10-16T03:50:17;99645.81;;;11.64;100.00
39699;BME280;25372;50.582;12.250;2022-10-16T04:00:41;99659.53;;;11.74;100.00
39699;BME280;25372;50.582;12.250;2022-10-16T04:11:02;99653.69;;;11.85;100.00
39699;BME280;25372;50.582;12.250;2022-10-16T04:21:24;99678.69;;;11.98;100.00
39699;BME280;25372;50.582;12.250;2022-10-16T04:31:46;99664.47;;;12.12;100.00
39699;BME280;25372;50.582;12.250;2022-10-16T04:42:08;99686.31;;;12.08;100.00
39699;BME280;25372;50.582;12.250;2022-10-16T04:52:29;99699.84;;;12.19;100.00
39699;BME280;25372;50.582;12.250;2022-10-16T05:02:52;99680.66;;;12.24;100.00
39699;BME280;25372;50.582;12.250;2022-10-16T05:13:13;99690.44;;;12.17;100.00
39699;BME280;25372;50.582;12.250;2022-10-16T05:23:35;99700.19;;;12.03;100.00
39699;BME280;25372;50.582;12.250;2022-10-16T05:33:58;99712.59;;;11.96;100.00
39699;BME280;25372;50.582;12.250;2022-10-16T05:44:20;99712.03;;;12.07;100.00
39699;BME280;25372;50.582;12.250;2022-10-16T05:54:41;99705.72;;;12.08;100.00
39699;BME280;25372;50.582;12.250;2022-10-16T06:05:04;99735.13;;;12.48;100.00
39699;BME280;25372;50.582;12.250;2022-10-16T06:15:25;99740.94;;;12.72;100.00
39699;BME280;25372;50.582;12.250;2022-10-16T06:25:47;99768.91;;;13.30;100.00
39699;BME280;25372;50.582;12.250;2022-10-16T06:36:10;99774.25;;;13.70;100.00
39699;BME280;25372;50.582;12.250;2022-10-16T06:46:33;99791.38;;;14.34;100.00
39699;BME280;25372;50.582;12.250;2022-10-16T06:56:54;99797.47;;;14.61;100.00
39699;BME280;25372;50.582;12.250;2022-10-16T07:07:16;99811.44;;;14.63;100.00
39699;BME280;25372;50.582;12.250;2022-10-16T07:17:37;99799.69;;;15.10;100.00
39699;BME280;25372;50.582;12.250;2022-10-16T07:28:00;99850.41;;;15.10;100.00
39699;BME280;25372;50.582;12.250;2022-10-16T07:38:21;99874.72;;;15.02;100.00
39699;BME280;25372;50.582;12.250;2022-10-16T07:48:44;99876.13;;;15.43;100.00
39699;BME280;25372;50.582;12.250;2022-10-16T07:59:06;99876.41;;;16.42;96.37
39699;BME280;25372;50.582;12.250;2022-10-16T08:09:29;99798.53;;;16.87;90.60
39699;BME280;25372;50.582;12.250;2022-10-16T08:19:50;99869.28;;;16.73;92.75
39699;BME280;25372;50.582;12.250;2022-10-16T08:30:13;99865.44;;;16.87;93.82
39699;BME280;25372;50.582;12.250;2022-10-16T08:40:36;99877.88;;;17.61;89.00
39699;BME280;25372;50.582;12.250;2022-10-16T08:51:01;99873.81;;;17.70;87.91
39699;BME280;25372;50.582;12.250;2022-10-16T09:01:25;99861.84;;;17.42;89.42
39699;BME280;25372;50.582;12.250;2022-10-16T09:12:00;99857.38;;;17.67;88.98
39699;BME280;25372;50.582;12.250;2022-10-16T09:22:27;99873.31;;;18.63;83.80
39699;BME280;25372;50.582;12.250;2022-10-16T09:32:51;99857.69;;;19.29;77.55
39699;BME280;25372;50.582;12.250;2022-10-16T09:43:20;99884.72;;;19.23;77.61
39699;BME280;25372;50.582;12.250;2022-10-16T09:53:45;99875.19;;;19.61;77.00
39699;BME280;25372;50.582;12.250;2022-10-16T10:04:08;99893.59;;;20.32;73.71
39699;BME280;25372;50.582;12.250;2022-10-16T10:14:34;99899.94;;;19.92;75.05
39699;BME280;25372;50.582;12.250;2022-10-16T10:24:59;99928.88;;;19.84;75.74
39699;BME280;25372;50.582;12.250;2022-10-16T10:35:25;99925.22;;;20.08;74.34
39699;BME280;25372;50.582;12.250;2022-10-16T10:45:54;99932.63;;;20.51;72.18
39699;BME280;25372;50.582;12.250;2022-10-16T10:56:30;99944.31;;;22.27;66.43
39699;BME280;25372;50.582;12.250;2022-10-16T11:07:02;99932.03;;;21.05;67.37
39699;BME280;25372;50.582;12.250;2022-10-16T11:17:28;99946.59;;;19.97;71.72
39699;BME280;25372;50.582;12.250;2022-10-16T11:27:54;99931.91;;;20.05;71.83
39699;BME280;25372;50.582;12.250;2022-10-16T11:38:25;99936.69;;;20.54;70.62
39699;BME280;25372;50.582;12.250;2022-10-16T11:48:51;99949.06;;;20.33;71.12
39699;BME280;25372;50.582;12.250;2022-10-16T11:59:22;99956.88;;;20.68;69.46
39699;BME280;25372;50.582;12.250;2022-10-16T12:09:44;99961.81;;;21.38;66.37
39699;BME280;25372;50.582;12.250;2022-10-16T12:20:26;99964.44;;;21.33;65.75
39699;BME280;25372;50.582;12.250;2022-10-16T12:30:53;99965.19;;;21.28;67.25
39699;BME280;25372;50.582;12.250;2022-10-16T12:41:25;99974.25;;;21.66;65.69
39699;BME280;25372;50.582;12.250;2022-10-16T12:51:47;99978.53;;;21.89;65.13
39699;BME280;25372;50.582;12.250;2022-10-16T13:02:36;99981.41;;;22.37;63.62
39699;BME280;25372;50.582;12.250;2022-10-16T13:13:20;99980.59;;;22.37;62.61
39699;BME280;25372;50.582;12.250;2022-10-16T13:23:52;99985.06;;;21.44;66.87
39699;BME280;25372;50.582;12.250;2022-10-16T13:34:18;99986.78;;;20.89;67.86
39699;BME280;25372;50.582;12.250;2022-10-16T13:44:44;99996.19;;;20.52;70.50
39699;BME280;25372;50.582;12.250;2022-10-16T13:55:10;100006.53;;;21.17;70.15
39699;BME280;25372;50.582;12.250;2022-10-16T14:05:34;100008.31;;;21.06;71.30
39699;BME280;25372;50.582;12.250;2022-10-16T14:15:55;100015.06;;;20.69;74.09
39699;BME280;25372;50.582;12.250;2022-10-16T14:26:20;100018.81;;;20.68;74.86
39699;BME280;25372;50.582;12.250;2022-10-16T14:36:42;100010.13;;;20.49;75.94
39699;BME280;25372;50.582;12.250;2022-10-16T14:47:11;100010.53;;;20.41;72.35
39699;BME280;25372;50.582;12.250;2022-10-16T14:57:36;100039.25;;;20.35;74.75
39699;BME280;25372;50.582;12.250;2022-10-16T15:08:00;100055.97;;;20.54;75.66
39699;BME280;25372;50.582;12.250;2022-10-16T15:18:21;100061.41;;;20.09;76.63
39699;BME280;25372;50.582;12.250;2022-10-16T15:28:43;100069.78;;;19.31;81.69
39699;BME280;25372;50.582;12.250;2022-10-16T15:39:08;100085.94;;;18.53;84.26
39699;BME280;25372;50.582;12.250;2022-10-16T15:49:33;100091.00;;;17.82;89.71
39699;BME280;25372;50.582;12.250;2022-10-16T15:59:54;100099.88;;;17.27;92.58
39699;BME280;25372;50.582;12.250;2022-10-16T16:10:17;100109.94;;;16.74;94.99
39699;BME280;25372;50.582;12.250;2022-10-16T16:20:40;100124.09;;;16.18;99.21
39699;BME280;25372;50.582;12.250;2022-10-16T16:31:03;100135.00;;;15.51;100.00
39699;BME280;25372;50.582;12.250;2022-10-16T16:41:26;100169.75;;;15.18;100.00
39699;BME280;25372;50.582;12.250;2022-10-16T16:51:52;100178.72;;;14.70;100.00
39699;BME280;25372;50.582;12.250;2022-10-16T17:02:13;100194.63;;;14.43;100.00
39699;BME280;25372;50.582;12.250;2022-10-16T17:12:35;100214.94;;;14.37;100.00
39699;BME280;25372;50.582;12.250;2022-10-16T17:22:56;100222.91;;;13.95;100.00
39699;BME280;25372;50.582;12.250;2022-10-16T17:33:19;100224.94;;;13.93;100.00
39699;BME280;25372;50.582;12.250;2022-10-16T17:43:40;100230.25;;;13.87;100.00
39699;BME280;25372;50.582;12.250;2022-10-16T17:54:05;100266.19;;;13.69;100.00
39699;BME280;25372;50.582;12.250;2022-10-16T18:04:26;100275.22;;;13.97;100.00
39699;BME280;25372;50.582;12.250;2022-10-16T18:14:48;100290.25;;;14.46;100.00
39699;BME280;25372;50.582;12.250;2022-10-16T18:25:09;100299.72;;;14.55;100.00
39699;BME280;25372;50.582;12.250;2022-10-16T18:35:34;100315.53;;;14.57;100.00
39699;BME280;25372;50.582;12.250;2022-10-16T18:45:55;100317.72;;;14.11;100.00
39699;BME280;25372;50.582;12.250;2022-10-16T18:56:20;100309.91;;;13.82;100.00
39699;BME280;25372;50.582;12.250;2022-10-16T19:06:43;100315.13;;;13.62;100.00
39699;BME280;25372;50.582;12.250;2022-10-16T19:17:06;100335.25;;;13.71;100.00
39699;BME280;25372;50.582;12.250;2022-10-16T19:27:27;100349.19;;;13.73;100.00
39699;BME280;25372;50.582;12.250;2022-10-16T19:37:50;100349.91;;;13.60;100.00
39699;BME280;25372;50.582;12.250;2022-10-16T19:48:11;100356.09;;;13.89;100.00
39699;BME280;25372;50.582;12.250;2022-10-16T19:58:33;100356.84;;;14.68;100.00
39699;BME280;25372;50.582;12.250;2022-10-16T20:08:54;100359.78;;;14.79;100.00
39699;BME280;25372;50.582;12.250;2022-10-16T20:19:17;100355.09;;;14.53;100.00
39699;BME280;25372;50.582;12.250;2022-10-16T20:29:38;100371.41;;;14.37;100.00
39699;BME280;25372;50.582;12.250;2022-10-16T20:40:01;100382.81;;;14.24;100.00
39699;BME280;25372;50.582;12.250;2022-10-16T20:50:22;100388.19;;;14.02;100.00
39699;BME280;25372;50.582;12.250;2022-10-16T21:00:44;100399.94;;;13.43;100.00
39699;BME280;25372;50.582;12.250;2022-10-16T21:11:10;100418.81;;;12.97;100.00
39699;BME280;25372;50.582;12.250;2022-10-16T21:21:33;100425.97;;;12.51;100.00
39699;BME280;25372;50.582;12.250;2022-10-16T21:31:54;100441.50;;;12.25;100.00
39699;BME280;25372;50.582;12.250;2022-10-16T21:42:16;100444.50;;;12.21;100.00
39699;BME280;25372;50.582;12.250;2022-10-16T21:52:37;100441.41;;;11.95;100.00
39699;BME280;25372;50.582;12.250;2022-10-16T22:02:59;100441.63;;;12.08;100.00
39699;BME280;25372;50.582;12.250;2022-10-16T22:13:20;100438.88;;;12.01;100.00
39699;BME280;25372;50.582;12.250;2022-10-16T22:23:42;100447.56;;;11.87;100.00
39699;BME280;25372;50.582;12.250;2022-10-16T22:34:04;100448.44;;;11.79;100.00
39699;BME280;25372;50.582;12.250;2022-10-16T22:44:26;100460.25;;;11.77;100.00
39699;BME280;25372;50.582;12.250;2022-10-16T22:54:47;100460.66;;;11.65;100.00
39699;BME280;25372;50.582;12.250;2022-10-16T23:05:10;100462.50;;;11.88;100.00
39699;BME280;25372;50.582;12.250;2022-10-16T23:15:31;100466.25;;;11.71;100.00
39699;BME280;25372;50.582;12.250;2022-10-16T23:25:53;100471.56;;;11.71;100.00
39699;BME280;25372;50.582;12.250;2022-10-16T23:36:16;100481.19;;;11.72;100.00
39699;BME280;25372;50.582;12.250;2022-10-16T23:46:39;100483.97;;;11.47;100.00
39699;BME280;25372;50.582;12.250;2022-10-16T23:56:59;100472.16;;;11.58;100.00
